Time;durP1;ratioP1;P1;durP2;ratioP2;P2;SDS_P1;SDS_P2;PMS_P1;PMS_P2;Temp;Humidity;BMP_temperature;BMP_pressure;BME280_temperature;BME280_humidity;BME280_pressure;Samples;Min_cycle;Max_cycle;Signal;HPM_P1;HPM_P2
2022/07/17 00:01:22;;;;;;;2.77;2.57;;;24.60;77.20;;;;;;5115633;28;20768;-93
2022/07/17 00:03:47;;;;;;;2.90;2.60;;;24.60;77.20;;;;;;5116348;28;20236;-93
2022/07/17 00:06:14;;;;;;;2.90;2.60;;;24.60;77.10;;;;;;5120347;28;20410;-93
2022/07/17 00:08:40;;;;;;;3.53;3.23;;;24.60;77.10;;;;;;5116974;28;20206;-94
2022/07/17 00:11:05;;;;;;;4.00;2.70;;;24.60;77.10;;;;;;5115439;28;20420;-94
2022/07/17 00:13:31;;;;;;;2.70;2.50;;;24.60;77.20;;;;;;5117110;28;20179;-94
2022/07/17 00:15:57;;;;;;;2.87;2.40;;;24.50;77.10;;;;;;5114695;28;20557;-93
2022/07/17 00:18:23;;;;;;;2.43;2.30;;;24.50;77.10;;;;;;5114809;28;20289;-94
2022/07/17 00:20:48;;;;;;;2.60;2.40;;;24.50;77.10;;;;;;5116431;28;20202;-92
2022/07/17 00:23:14;;;;;;;3.93;2.70;;;24.50;77.20;;;;;;5114887;28;20209;-93
2022/07/17 00:25:40;;;;;;;2.80;2.50;;;24.40;77.20;;;;;;5118949;28;20192;-93
2022/07/17 00:28:05;;;;;;;3.13;2.60;;;24.40;77.10;;;;;;5116434;28;20207;-94
2022/07/17 00:30:31;;;;;;;2.70;2.50;;;24.40;77.10;;;;;;5117856;28;20207;-93
2022/07/17 00:32:57;;;;;;;5.47;2.93;;;24.40;77.00;;;;;;5116502;28;20244;-94
2022/07/17 00:35:24;;;;;;;4.60;2.10;;;24.30;76.80;;;;;;5114810;28;20828;-93
2022/07/17 00:37:49;;;;;;;3.30;2.60;;;24.30;76.90;;;;;;5116406;28;20236;-94
2022/07/17 00:40:23;;;;;;;2.93;2.20;;;24.20;77.00;;;;;;5119310;28;20769;-93
2022/07/17 00:42:50;;;;;;;3.30;2.40;;;24.20;76.80;;;;;;5118683;28;20406;-93
2022/07/17 00:45:16;;;;;;;2.37;2.13;;;24.20;76.50;;;;;;5117670;28;20407;-93
2022/07/17 00:47:58;;;;;;;3.17;2.00;;;24.10;76.50;;;;;;5115674;28;20512;-95
2022/07/17 00:50:27;;;;;;;2.57;2.30;;;24.10;76.20;;;;;;5115516;28;20506;-92
2022/07/17 00:52:53;;;;;;;2.50;2.30;;;24.10;76.20;;;;;;5114314;28;20445;-94
2022/07/17 00:55:18;;;;;;;3.30;2.10;;;24.10;76.20;;;;;;5114324;28;20571;-93
2022/07/17 00:57:47;;;;;;;3.60;2.03;;;24.00;76.10;;;;;;5115919;28;20237;-93
2022/07/17 01:00:14;;;;;;;2.50;2.00;;;24.00;76.20;;;;;;5114379;28;20264;-93
2022/07/17 01:02:40;;;;;;;4.00;2.40;;;24.00;76.00;;;;;;5115384;28;20526;-94
2022/07/17 01:05:06;;;;;;;2.70;2.10;;;24.00;75.80;;;;;;5115866;28;20453;-92
2022/07/17 01:07:33;;;;;;;1.93;1.83;;;23.90;76.00;;;;;;5121125;28;20240;-94
2022/07/17 01:09:59;;;;;;;2.67;2.47;;;23.90;75.80;;;;;;5116491;28;20466;-93
2022/07/17 01:12:25;;;;;;;3.33;2.10;;;23.90;75.60;;;;;;5117753;28;20765;-93
2022/07/17 01:14:52;;;;;;;4.33;2.40;;;23.90;75.70;;;;;;5117273;28;20409;-94
2022/07/17 01:17:19;;;;;;;2.93;1.80;;;23.80;75.70;;;;;;5118311;28;20446;-93
2022/07/17 01:19:44;;;;;;;2.60;2.40;;;23.80;75.60;;;;;;5119352;28;20493;-93
2022/07/17 01:22:10;;;;;;;2.00;1.87;;;23.80;75.60;;;;;;5123844;27;20465;-94
2022/07/17 01:24:40;;;;;;;2.13;1.93;;;23.70;75.50;;;;;;5122154;28;20209;-92
2022/07/17 01:27:06;;;;;;;1.70;1.60;;;23.70;75.50;;;;;;5121688;28;20192;-93
2022/07/17 01:29:31;;;;;;;2.33;2.00;;;23.70;75.50;;;;;;5123693;28;20496;-92
2022/07/17 01:31:57;;;;;;;2.17;1.97;;;23.70;75.50;;;;;;5124402;28;20448;-94
2022/07/17 01:34:23;;;;;;;2.17;1.97;;;23.70;75.50;;;;;;5118204;28;20707;-94
2022/07/17 01:36:49;;;;;;;3.50;1.97;;;23.70;75.50;;;;;;5117681;28;20711;-94
2022/07/17 01:39:14;;;;;;;3.63;1.57;;;23.60;75.50;;;;;;5118145;28;20210;-94
2022/07/17 01:41:40;;;;;;;2.13;1.93;;;23.60;75.30;;;;;;5118863;28;20189;-91
2022/07/17 01:44:07;;;;;;;1.70;1.60;;;23.50;75.50;;;;;;5119989;28;20184;-93
2022/07/17 01:46:32;;;;;;;3.60;1.80;;;23.50;75.60;;;;;;5117695;28;20657;-93
2022/07/17 01:49:00;;;;;;;2.20;1.87;;;23.50;75.50;;;;;;5119285;28;20468;-94
2022/07/17 01:51:27;;;;;;;1.53;1.43;;;23.50;75.70;;;;;;5117744;28;20191;-95
2022/07/17 01:53:52;;;;;;;1.63;1.53;;;23.40;75.70;;;;;;5118028;28;20431;-93
2022/07/17 01:56:18;;;;;;;2.50;1.83;;;23.40;75.80;;;;;;5120490;28;20472;-93
2022/07/17 01:58:44;;;;;;;2.57;2.00;;;23.40;75.70;;;;;;5117914;28;20187;-93
2022/07/17 02:01:10;;;;;;;2.00;1.90;;;23.40;75.70;;;;;;5118306;28;20672;-94
2022/07/17 02:03:36;;;;;;;2.47;1.70;;;23.40;75.70;;;;;;5119060;27;20419;-94
2022/07/17 02:06:01;;;;;;;2.20;2.00;;;23.30;75.60;;;;;;5121940;28;20241;-94
2022/07/17 02:08:27;;;;;;;1.90;1.80;;;23.30;75.60;;;;;;5120086;28;20591;-93
2022/07/17 02:10:53;;;;;;;1.70;1.50;;;23.30;75.60;;;;;;5116973;28;20274;-92
2022/07/17 02:13:19;;;;;;;2.37;2.17;;;23.30;75.60;;;;;;5117244;28;20199;-93
2022/07/17 02:15:44;;;;;;;1.63;1.53;;;23.30;75.70;;;;;;5116077;28;20223;-94
2022/07/17 02:18:10;;;;;;;4.23;1.83;;;23.30;75.70;;;;;;5115806;28;20214;-93
2022/07/17 02:20:36;;;;;;;3.93;2.33;;;23.30;75.80;;;;;;5117810;28;20217;-92
2022/07/17 02:23:02;;;;;;;5.33;1.97;;;23.20;75.80;;;;;;5115954;28;20207;-92
2022/07/17 02:25:27;;;;;;;1.83;1.50;;;23.20;76.00;;;;;;5115386;28;20183;-94
2022/07/17 02:27:53;;;;;;;2.20;1.70;;;23.20;76.00;;;;;;5116759;28;20556;-94
2022/07/17 02:30:19;;;;;;;1.57;1.47;;;23.20;76.10;;;;;;5115666;28;20672;-92
2022/07/17 02:32:45;;;;;;;1.67;1.57;;;23.10;76.00;;;;;;5118796;28;20230;-93
2022/07/17 02:35:12;;;;;;;1.80;1.70;;;23.10;76.10;;;;;;5115527;28;20541;-92
2022/07/17 02:37:39;;;;;;;2.00;1.80;;;23.10;76.10;;;;;;5116677;28;20435;-94
2022/07/17 02:40:06;;;;;;;2.10;1.63;;;23.10;76.20;;;;;;5119031;28;20446;-92
2022/07/17 02:42:32;;;;;;;1.83;1.73;;;23.00;76.10;;;;;;5123077;28;20801;-93
2022/07/17 02:44:58;;;;;;;3.03;1.60;;;23.00;76.30;;;;;;5119552;28;20396;-92
2022/07/17 02:47:25;;;;;;;5.33;1.57;;;23.00;76.30;;;;;;5120266;28;20264;-94
2022/07/17 02:49:52;;;;;;;3.33;1.43;;;22.90;76.30;;;;;;5117849;28;20439;-93
2022/07/17 02:52:18;;;;;;;2.40;1.73;;;22.90;76.40;;;;;;5115691;28;20450;-94
2022/07/17 02:54:44;;;;;;;2.33;1.70;;;22.90;76.40;;;;;;5116452;28;20419;-92
2022/07/17 02:57:10;;;;;;;2.50;1.63;;;22.90;76.50;;;;;;5115214;28;20507;-94
2022/07/17 02:59:36;;;;;;;3.13;1.43;;;22.80;76.50;;;;;;5119128;28;20392;-93
2022/07/17 03:02:01;;;;;;;1.73;1.63;;;22.80;76.50;;;;;;5115053;28;20555;-94
2022/07/17 03:04:27;;;;;;;4.63;1.70;;;22.80;76.40;;;;;;5115326;28;20176;-92
2022/07/17 03:06:53;;;;;;;2.23;1.50;;;22.80;76.40;;;;;;5076226;28;1183423;-93
2022/07/17 03:09:18;;;;;;;2.40;1.90;;;22.70;76.40;;;;;;5118513;28;20180;-94
2022/07/17 03:11:44;;;;;;;1.63;1.53;;;22.70;76.40;;;;;;5118586;28;20195;-94
2022/07/17 03:14:10;;;;;;;6.57;2.20;;;22.70;76.40;;;;;;5116327;28;20172;-93
2022/07/17 03:16:35;;;;;;;1.77;1.30;;;22.60;76.40;;;;;;5116957;28;20227;-94
2022/07/17 03:19:01;;;;;;;1.70;1.60;;;22.60;76.40;;;;;;5116006;28;20269;-93
2022/07/17 03:21:30;;;;;;;2.37;1.60;;;22.60;76.30;;;;;;5115870;28;20218;-94
2022/07/17 03:23:55;;;;;;;1.90;1.70;;;22.50;76.50;;;;;;5118204;28;20632;-94
2022/07/17 03:26:21;;;;;;;1.73;1.63;;;22.50;76.60;;;;;;5116022;28;20451;-93
2022/07/17 03:28:47;;;;;;;1.40;1.30;;;22.50;76.70;;;;;;5115914;28;20259;-92
2022/07/17 03:31:13;;;;;;;1.80;1.70;;;22.40;76.60;;;;;;5116003;28;20251;-94
2022/07/17 03:33:38;;;;;;;6.23;1.70;;;22.40;76.70;;;;;;5116521;28;20216;-92
2022/07/17 03:36:06;;;;;;;3.83;1.70;;;22.40;76.90;;;;;;5114953;28;20241;-94
2022/07/17 03:38:32;;;;;;;1.40;1.30;;;22.30;77.00;;;;;;5115874;28;20177;-93
2022/07/17 03:40:58;;;;;;;1.50;1.40;;;22.40;77.30;;;;;;5115404;28;20481;-92
2022/07/17 03:43:24;;;;;;;1.93;1.83;;;22.30;77.30;;;;;;5115583;28;20920;-94
2022/07/17 03:45:49;;;;;;;1.40;1.30;;;22.30;77.10;;;;;;5118542;28;20232;-92
2022/07/17 03:48:15;;;;;;;1.53;1.40;;;22.30;77.30;;;;;;5115295;28;20436;-93
2022/07/17 03:50:41;;;;;;;8.70;1.93;;;22.30;77.30;;;;;;5115377;28;20574;-93
2022/07/17 03:53:07;;;;;;;1.90;1.53;;;22.30;77.40;;;;;;5117938;28;20691;-95
2022/07/17 03:55:33;;;;;;;1.83;1.60;;;22.30;77.40;;;;;;5115214;28;20472;-92
2022/07/17 03:57:58;;;;;;;2.80;1.40;;;22.20;77.40;;;;;;5115206;28;20440;-93
2022/07/17 04:00:24;;;;;;;2.77;1.27;;;22.20;77.50;;;;;;5117942;28;20282;-93
2022/07/17 04:02:50;;;;;;;1.60;1.50;;;22.20;77.60;;;;;;5115069;28;20203;-94
2022/07/17 04:05:15;;;;;;;2.17;2.00;;;22.10;78.30;;;;;;5115305;28;20266;-93
2022/07/17 04:07:42;;;;;;;3.20;1.93;;;22.10;77.60;;;;;;5116093;28;20231;-93
2022/07/17 04:10:10;;;;;;;3.10;1.70;;;22.00;77.80;;;;;;5114957;28;20198;-94
2022/07/17 04:12:37;;;;;;;1.90;1.63;;;22.00;78.30;;;;;;5120232;28;20960;-94
2022/07/17 04:15:04;;;;;;;2.47;1.77;;;22.00;79.30;;;;;;5116368;28;20408;-93
2022/07/17 04:17:30;;;;;;;1.70;1.60;;;21.90;79.00;;;;;;5116343;28;20497;-95
2022/07/17 04:19:55;;;;;;;2.80;1.70;;;21.90;78.90;;;;;;5116779;28;20404;-94
2022/07/17 04:22:21;;;;;;;1.60;1.33;;;21.90;79.10;;;;;;5121396;28;20439;-93
2022/07/17 04:24:47;;;;;;;1.40;1.27;;;21.90;79.70;;;;;;5116466;28;20687;-94
2022/07/17 04:27:13;;;;;;;3.10;1.57;;;21.90;79.80;;;;;;5118633;28;20436;-92
2022/07/17 04:29:39;;;;;;;1.73;1.63;;;21.90;79.50;;;;;;5119940;28;20270;-93
2022/07/17 04:32:06;;;;;;;1.37;1.27;;;21.90;78.60;;;;;;5121802;28;20490;-94
2022/07/17 04:34:32;;;;;;;3.80;1.57;;;21.90;79.10;;;;;;5118384;28;20416;-92
2022/07/17 04:36:59;;;;;;;5.90;1.37;;;21.90;78.70;;;;;;5117903;28;20472;-92
2022/07/17 04:39:25;;;;;;;4.47;1.40;;;21.90;78.90;;;;;;5116165;28;20473;-93
2022/07/17 04:41:51;;;;;;;2.17;1.40;;;21.90;79.30;;;;;;5116837;28;20424;-94
2022/07/17 04:44:17;;;;;;;1.53;1.43;;;21.90;79.60;;;;;;5115997;28;20213;-93
2022/07/17 04:46:43;;;;;;;1.50;1.40;;;21.90;79.40;;;;;;5114632;28;20436;-93
2022/07/17 04:49:09;;;;;;;4.20;1.50;;;22.00;79.40;;;;;;5116269;28;20460;-94
2022/07/17 04:51:35;;;;;;;1.40;1.30;;;22.00;79.10;;;;;;5115412;28;20199;-93
2022/07/17 04:54:00;;;;;;;1.67;1.20;;;22.00;79.10;;;;;;5114704;28;20172;-94
2022/07/17 04:56:26;;;;;;;2.73;1.90;;;22.00;79.20;;;;;;5115205;28;20475;-93
2022/07/17 04:58:52;;;;;;;1.50;1.40;;;22.10;79.10;;;;;;5114350;28;20178;-95
2022/07/17 05:01:18;;;;;;;3.70;1.77;;;22.00;79.20;;;;;;5115868;28;20700;-91
2022/07/17 05:03:44;;;;;;;2.47;1.63;;;22.00;78.90;;;;;;5114434;28;20412;-94
2022/07/17 05:06:10;;;;;;;4.63;1.50;;;22.00;79.10;;;;;;5114032;28;20458;-93
2022/07/17 05:08:36;;;;;;;1.53;1.40;;;22.10;79.00;;;;;;5114477;28;20682;-93
2022/07/17 05:11:01;;;;;;;1.30;1.20;;;22.10;79.10;;;;;;5114032;28;20419;-93
2022/07/17 05:13:27;;;;;;;2.40;1.50;;;22.10;79.20;;;;;;5118580;28;20202;-94
2022/07/17 05:15:53;;;;;;;1.40;1.30;;;22.10;79.10;;;;;;5115378;28;20226;-92
2022/07/17 05:18:19;;;;;;;4.03;1.50;;;22.10;79.30;;;;;;5114997;28;20553;-92
2022/07/17 05:20:44;;;;;;;5.27;1.47;;;22.20;79.50;;;;;;5114078;28;20412;-93
2022/07/17 05:23:10;;;;;;;1.63;1.50;;;22.20;79.50;;;;;;5114139;28;20693;-94
2022/07/17 05:25:36;;;;;;;2.37;1.60;;;22.30;78.90;;;;;;5115187;28;20182;-93
2022/07/17 05:28:02;;;;;;;1.70;1.60;;;22.30;79.10;;;;;;5115250;28;20191;-93
2022/07/17 05:30:29;;;;;;;2.90;1.57;;;22.30;78.50;;;;;;5114202;28;20428;-93
2022/07/17 05:32:54;;;;;;;3.43;1.67;;;22.30;78.90;;;;;;5113824;28;20456;-93
2022/07/17 05:35:20;;;;;;;2.47;1.80;;;22.40;78.90;;;;;;5114910;28;20951;-93
2022/07/17 05:37:46;;;;;;;3.17;2.37;;;22.40;78.80;;;;;;5113658;28;20250;-94
2022/07/17 05:40:12;;;;;;;2.87;1.43;;;22.40;78.70;;;;;;5114726;28;20424;-93
2022/07/17 05:42:38;;;;;;;2.07;1.90;;;22.50;78.70;;;;;;5113866;28;20204;-93
2022/07/17 05:45:04;;;;;;;3.10;1.53;;;22.50;78.90;;;;;;5114223;28;20412;-92
2022/07/17 05:47:30;;;;;;;1.63;1.53;;;22.60;79.30;;;;;;5114723;28;20752;-93
2022/07/17 05:49:56;;;;;;;2.40;1.20;;;22.70;78.90;;;;;;5116865;28;20457;-92
2022/07/17 05:52:22;;;;;;;2.00;1.30;;;22.70;78.30;;;;;;5115749;28;20561;-92
2022/07/17 05:54:48;;;;;;;2.40;1.47;;;22.80;77.70;;;;;;5114006;28;20420;-94
2022/07/17 05:57:13;;;;;;;1.80;1.33;;;22.90;77.50;;;;;;5116670;28;20581;-93
2022/07/17 05:59:39;;;;;;;1.57;1.40;;;22.90;77.60;;;;;;5124386;28;20191;-93
2022/07/17 06:02:05;;;;;;;1.77;1.50;;;22.90;77.30;;;;;;5119627;28;20706;-93
2022/07/17 06:04:31;;;;;;;1.70;1.20;;;23.00;77.50;;;;;;5121822;28;20179;-92
2022/07/17 06:06:56;;;;;;;1.30;1.20;;;23.00;77.70;;;;;;5118608;28;20270;-94
2022/07/17 06:09:22;;;;;;;2.80;1.60;;;23.10;77.80;;;;;;5117443;28;20724;-92
2022/07/17 06:11:48;;;;;;;2.80;1.60;;;23.20;77.70;;;;;;5117569;28;20769;-93
2022/07/17 06:14:14;;;;;;;2.07;1.30;;;23.20;76.70;;;;;;5117316;28;20176;-95
2022/07/17 06:16:39;;;;;;;1.50;1.40;;;23.20;76.50;;;;;;5120350;28;20247;-93
2022/07/17 06:19:05;;;;;;;2.10;1.37;;;23.30;76.50;;;;;;5117309;28;20435;-94
2022/07/17 06:21:31;;;;;;;2.10;1.40;;;23.30;76.10;;;;;;5117108;28;20282;-94
2022/07/17 06:23:57;;;;;;;1.40;1.30;;;23.30;76.80;;;;;;5117142;28;20444;-93
2022/07/17 06:26:23;;;;;;;1.33;1.23;;;23.30;76.00;;;;;;5117014;28;20602;-94
2022/07/17 06:28:48;;;;;;;1.57;1.40;;;23.40;75.50;;;;;;5118674;27;20261;-93
2022/07/17 06:31:14;;;;;;;1.40;1.30;;;23.40;75.80;;;;;;5117046;28;20222;-94
2022/07/17 06:33:44;;;;;;;2.33;1.50;;;23.40;75.70;;;;;;5116924;28;20172;-95
2022/07/17 06:36:10;;;;;;;1.77;1.43;;;23.50;75.40;;;;;;5117890;28;20249;-93
2022/07/17 06:38:35;;;;;;;1.00;0.93;;;23.50;75.60;;;;;;5117046;28;20428;-94
2022/07/17 06:41:01;;;;;;;1.30;1.20;;;23.50;75.70;;;;;;5116619;28;20239;-94
2022/07/17 06:43:27;;;;;;;1.50;1.40;;;23.50;75.60;;;;;;5118778;28;20175;-95
2022/07/17 06:45:54;;;;;;;1.40;1.30;;;23.60;75.60;;;;;;5116827;28;20431;-93
2022/07/17 06:48:23;;;;;;;1.53;1.43;;;23.60;75.80;;;;;;5116748;28;20282;-95
2022/07/17 06:50:48;;;;;;;2.60;1.67;;;23.70;76.00;;;;;;5116496;28;20986;-93
2022/07/17 06:53:14;;;;;;;1.17;1.07;;;23.70;75.70;;;;;;5119852;28;20464;-93
2022/07/17 06:55:40;;;;;;;1.03;1.03;;;23.80;75.50;;;;;;5119417;28;20196;-92
2022/07/17 06:58:07;;;;;;;1.77;1.67;;;23.80;75.30;;;;;;5122769;28;20302;-94
2022/07/17 07:00:33;;;;;;;1.40;1.20;;;23.80;76.00;;;;;;5121557;28;20412;-93
2022/07/17 07:02:58;;;;;;;1.50;1.40;;;23.80;76.00;;;;;;5120265;28;20512;-93
2022/07/17 07:05:24;;;;;;;1.50;1.40;;;23.90;75.20;;;;;;5118090;28;20448;-93
2022/07/17 07:07:50;;;;;;;2.63;1.37;;;23.90;76.10;;;;;;5116201;28;20233;-94
2022/07/17 07:10:16;;;;;;;2.20;1.40;;;24.00;75.20;;;;;;5116063;28;20460;-92
2022/07/17 07:12:42;;;;;;;1.47;1.23;;;24.00;74.50;;;;;;5117653;28;20192;-93
2022/07/17 07:15:08;;;;;;;2.67;1.10;;;24.00;74.60;;;;;;5116461;28;20216;-95
2022/07/17 07:17:35;;;;;;;2.67;1.27;;;24.00;74.20;;;;;;5116001;28;20195;-94
2022/07/17 07:20:03;;;;;;;1.30;1.20;;;24.10;73.90;;;;;;5116116;28;20476;-95
2022/07/17 07:22:30;;;;;;;2.50;1.10;;;24.10;74.00;;;;;;5116938;28;20440;-95
2022/07/17 07:24:55;;;;;;;2.13;1.70;;;24.20;73.80;;;;;;5115923;28;20421;-94
2022/07/17 07:27:21;;;;;;;1.20;1.10;;;24.20;73.50;;;;;;5116679;28;20531;-93
2022/07/17 07:29:47;;;;;;;1.30;1.20;;;24.20;72.60;;;;;;5118592;28;20220;-94
2022/07/17 07:32:12;;;;;;;1.60;1.50;;;24.20;72.70;;;;;;5119654;28;20213;-93
2022/07/17 07:34:39;;;;;;;0.80;0.80;;;24.20;72.90;;;;;;5117633;28;20227;-91
2022/07/17 07:37:05;;;;;;;1.30;1.20;;;24.30;72.50;;;;;;5117193;28;20223;-94
2022/07/17 07:39:31;;;;;;;3.70;1.33;;;24.30;72.50;;;;;;5118023;28;20406;-94
2022/07/17 07:41:56;;;;;;;1.10;1.00;;;24.30;72.90;;;;;;5115453;28;20200;-95
2022/07/17 07:44:22;;;;;;;2.50;1.30;;;24.30;72.50;;;;;;5115809;28;20228;-94
2022/07/17 07:46:48;;;;;;;1.40;1.20;;;24.40;73.10;;;;;;5115340;28;20204;-94
2022/07/17 07:49:15;;;;;;;1.33;1.30;;;24.40;72.60;;;;;;5115434;28;20422;-93
2022/07/17 07:51:41;;;;;;;2.00;1.50;;;24.50;72.60;;;;;;5117467;28;20571;-95
2022/07/17 07:54:07;;;;;;;1.80;1.20;;;24.50;72.00;;;;;;5115570;28;20436;-93
2022/07/17 07:56:33;;;;;;;1.50;1.40;;;24.50;71.70;;;;;;5115129;28;20478;-93
2022/07/17 07:58:59;;;;;;;1.00;0.90;;;24.60;72.30;;;;;;5115123;28;20183;-93
2022/07/17 08:01:24;;;;;;;2.30;1.07;;;24.60;72.00;;;;;;5115137;28;20431;-95
2022/07/17 08:03:50;;;;;;;1.27;1.17;;;24.70;72.30;;;;;;5116697;28;20183;-95
2022/07/17 08:06:16;;;;;;;1.20;1.10;;;24.70;71.70;;;;;;5114940;28;20635;-95
2022/07/17 08:08:42;;;;;;;1.40;0.97;;;24.80;71.70;;;;;;5115233;28;20177;-94
2022/07/17 08:11:07;;;;;;;1.43;1.33;;;24.90;71.70;;;;;;5114985;28;20182;-94
2022/07/17 08:13:33;;;;;;;1.90;1.30;;;24.90;71.70;;;;;;5115198;28;20203;-94
2022/07/17 08:15:59;;;;;;;2.40;1.40;;;25.00;71.20;;;;;;5116441;28;20705;-94
2022/07/17 08:18:25;;;;;;;1.40;1.20;;;25.00;70.80;;;;;;5114983;28;20639;-93
2022/07/17 08:20:53;;;;;;;1.40;1.23;;;25.00;71.00;;;;;;5115087;28;20231;-93
2022/07/17 08:23:19;;;;;;;2.63;1.23;;;25.10;70.70;;;;;;5116179;28;20485;-92
2022/07/17 08:25:47;;;;;;;3.50;1.27;;;25.10;71.20;;;;;;5115533;28;20467;-93
2022/07/17 08:28:13;;;;;;;1.40;1.10;;;25.20;71.60;;;;;;5117765;28;20804;-94
2022/07/17 08:30:39;;;;;;;1.93;1.17;;;25.20;70.60;;;;;;5120762;28;20467;-93
2022/07/17 08:33:07;;;;;;;1.53;1.10;;;25.20;70.50;;;;;;5116342;28;20466;-95
2022/07/17 08:35:34;;;;;;;1.00;0.83;;;25.20;69.40;;;;;;5118380;28;20478;-93
2022/07/17 08:38:02;;;;;;;0.93;0.93;;;25.30;69.90;;;;;;5116566;28;20458;-93
2022/07/17 08:40:32;;;;;;;3.10;0.90;;;25.30;70.60;;;;;;5126251;28;20926;-93
2022/07/17 08:42:59;;;;;;;2.30;1.10;;;25.40;70.60;;;;;;5115726;28;20451;-93
2022/07/17 08:45:25;;;;;;;1.03;1.00;;;25.50;68.30;;;;;;5114324;28;20466;-94
2022/07/17 08:47:52;;;;;;;1.17;1.07;;;25.50;68.90;;;;;;5114220;28;20454;-94
2022/07/17 08:50:26;;;;;;;0.87;0.83;;;25.60;67.00;;;;;;5114805;28;20938;-94
2022/07/17 08:52:52;;;;;;;1.57;1.00;;;25.60;67.20;;;;;;5116044;28;20442;-94
2022/07/17 08:55:18;;;;;;;1.00;0.90;;;25.60;66.70;;;;;;5115235;28;20472;-94
2022/07/17 08:57:45;;;;;;;0.80;0.80;;;25.70;66.30;;;;;;5114256;28;20516;-93
2022/07/17 09:00:14;;;;;;;1.40;1.30;;;25.80;66.10;;;;;;5114451;28;20935;-94
2022/07/17 09:02:40;;;;;;;1.30;0.90;;;25.80;65.60;;;;;;5114369;28;20443;-93
2022/07/17 09:05:07;;;;;;;0.97;0.87;;;25.90;65.30;;;;;;5115717;28;20435;-93
2022/07/17 09:07:33;;;;;;;1.57;0.80;;;26.00;65.20;;;;;;5114403;28;20952;-95
2022/07/17 09:09:59;;;;;;;2.03;1.00;;;26.00;65.80;;;;;;5114554;28;20450;-94
2022/07/17 09:12:27;;;;;;;2.10;0.97;;;26.10;65.70;;;;;;5113988;28;20442;-93
2022/07/17 09:14:53;;;;;;;0.90;0.90;;;26.20;67.00;;;;;;5114111;28;20269;-94
2022/07/17 09:17:19;;;;;;;2.30;1.00;;;26.20;65.20;;;;;;5114829;28;21007;-93
2022/07/17 09:19:46;;;;;;;2.33;1.20;;;26.30;64.30;;;;;;5116069;28;20408;-94
2022/07/17 09:22:20;;;;;;;1.30;0.70;;;26.30;64.40;;;;;;5115766;28;20488;-95
2022/07/17 09:24:52;;;;;;;1.53;0.60;;;26.40;64.30;;;;;;5118041;28;20464;-94
2022/07/17 09:27:24;;;;;;;1.10;0.80;;;26.40;64.10;;;;;;5114153;28;20504;-94
2022/07/17 09:29:51;;;;;;;1.60;1.00;;;26.50;64.30;;;;;;5114023;28;20416;-92
2022/07/17 09:32:21;;;;;;;1.33;0.90;;;26.50;64.40;;;;;;5114148;28;20522;-95
2022/07/17 09:34:48;;;;;;;1.10;0.80;;;26.50;62.90;;;;;;5115738;28;20415;-95
2022/07/17 09:37:14;;;;;;;0.80;0.70;;;26.50;62.60;;;;;;5117827;28;21060;-95
2022/07/17 09:39:41;;;;;;;0.83;0.67;;;26.60;62.70;;;;;;5119048;28;20411;-93
2022/07/17 09:42:07;;;;;;;1.00;0.90;;;26.60;63.20;;;;;;5117666;28;20443;-94
2022/07/17 09:44:33;;;;;;;1.43;0.90;;;26.70;63.00;;;;;;5118892;28;20440;-94
2022/07/17 09:47:01;;;;;;;0.70;0.57;;;26.70;62.10;;;;;;5119473;28;20423;-93
2022/07/17 09:49:28;;;;;;;0.80;0.80;;;26.80;61.10;;;;;;5118147;28;20596;-93
2022/07/17 09:51:54;;;;;;;0.80;0.57;;;26.80;62.10;;;;;;5116896;28;20428;-95
2022/07/17 09:54:23;;;;;;;0.80;0.80;;;26.80;60.80;;;;;;5116950;28;20460;-94
2022/07/17 09:56:58;;;;;;;1.70;0.70;;;26.90;59.90;;;;;;5117493;28;20472;-94
2022/07/17 09:59:27;;;;;;;0.70;0.70;;;26.80;60.60;;;;;;5119277;28;20422;-95
2022/07/17 10:01:53;;;;;;;1.47;1.00;;;26.80;62.50;;;;;;5118734;28;20495;-92
2022/07/17 10:04:19;;;;;;;1.13;0.77;;;26.90;63.10;;;;;;5119048;28;20465;-95
2022/07/17 10:06:45;;;;;;;0.60;0.60;;;26.90;64.30;;;;;;5118284;28;20858;-96
2022/07/17 10:09:11;;;;;;;1.67;1.37;;;26.90;61.70;;;;;;5116986;28;20420;-94
2022/07/17 10:11:38;;;;;;;1.20;1.10;;;26.90;61.90;;;;;;5119615;28;20517;-95
2022/07/17 10:14:10;;;;;;;0.60;0.60;;;26.90;62.70;;;;;;5118186;28;20644;-94
2022/07/17 10:16:38;;;;;;;1.63;1.00;;;27.00;63.60;;;;;;5116643;28;20633;-95
2022/07/17 10:19:17;;;;;;;1.10;1.00;;;27.00;60.90;;;;;;5123522;28;20419;-94
2022/07/17 10:21:59;;;;;;;4.83;1.10;;;27.00;61.20;;;;;;5116012;28;20463;-94
2022/07/17 10:24:26;;;;;;;0.73;0.70;;;27.10;65.10;;;;;;5116577;28;20431;-94
2022/07/17 10:26:52;;;;;;;0.73;0.73;;;27.10;66.60;;;;;;5117047;28;20420;-94
2022/07/17 10:29:33;;;;;;;1.70;0.73;;;27.20;68.70;;;;;;5118999;28;20484;-95
2022/07/17 10:32:01;;;;;;;2.40;1.07;;;27.20;66.90;;;;;;5116955;28;20436;-94
2022/07/17 10:34:52;;;;;;;9.53;1.07;;;27.30;61.50;;;;;;5116803;28;20427;-95
2022/07/17 10:37:27;;;;;;;1.10;1.00;;;27.30;60.50;;;;;;5116734;28;20475;-95
2022/07/17 10:40:07;;;;;;;2.57;1.17;;;27.40;61.40;;;;;;5118637;28;20407;-94
2022/07/17 10:42:38;;;;;;;2.90;1.17;;;27.40;64.10;;;;;;5117874;27;20512;-94
2022/07/17 10:45:23;;;;;;;1.30;0.80;;;27.40;62.20;;;;;;5116301;28;20454;-92
2022/07/17 10:47:51;;;;;;;1.30;0.90;;;27.30;61.10;;;;;;5116594;28;20458;-95
2022/07/17 10:50:23;;;;;;;4.50;1.00;;;27.30;61.70;;;;;;5116912;28;21008;-94
2022/07/17 10:53:04;;;;;;;1.70;0.83;;;27.30;61.40;;;;;;5117764;28;20447;-94
2022/07/17 10:55:30;;;;;;;0.83;0.60;;;27.30;62.50;;;;;;5116672;28;20415;-95
2022/07/17 10:57:56;;;;;;;0.73;0.67;;;27.30;61.00;;;;;;5116465;28;20436;-95
2022/07/17 11:00:22;;;;;;;1.87;1.00;;;27.30;62.10;;;;;;5116788;28;20423;-93
2022/07/17 11:02:48;;;;;;;0.70;0.60;;;27.40;60.90;;;;;;5117400;28;20428;-95
2022/07/17 11:05:15;;;;;;;1.27;0.70;;;27.40;61.30;;;;;;5117748;28;20427;-93
2022/07/17 11:07:56;;;;;;;1.70;0.87;;;27.50;61.50;;;;;;5116105;28;20597;-93
2022/07/17 11:10:25;;;;;;;0.80;0.60;;;27.50;62.00;;;;;;5116729;28;20431;-93
2022/07/17 11:12:51;;;;;;;1.00;0.87;;;27.60;61.50;;;;;;5117795;28;20809;-93
2022/07/17 11:15:18;;;;;;;1.60;1.00;;;27.50;60.00;;;;;;5116733;28;20413;-95
2022/07/17 11:17:45;;;;;;;1.10;1.00;;;27.60;60.00;;;;;;5117839;28;20462;-94
2022/07/17 11:20:11;;;;;;;0.87;0.87;;;27.60;60.00;;;;;;5116445;28;20412;-93
2022/07/17 11:22:37;;;;;;;0.90;0.80;;;27.60;61.50;;;;;;5116092;28;20448;-94
2022/07/17 11:25:05;;;;;;;1.10;0.93;;;27.60;58.70;;;;;;5117425;28;20495;-94
2022/07/17 11:27:31;;;;;;;2.00;0.60;;;27.60;59.20;;;;;;5119280;28;20188;-94
2022/07/17 11:29:59;;;;;;;1.03;0.93;;;27.60;59.10;;;;;;5115849;28;20943;-93
2022/07/17 11:32:36;;;;;;;1.87;1.07;;;27.60;58.40;;;;;;5112349;28;20466;-95
2022/07/17 11:35:13;;;;;;;1.67;0.90;;;27.70;61.30;;;;;;5115384;28;20404;-94
2022/07/17 11:37:39;;;;;;;1.77;0.90;;;27.70;60.40;;;;;;5113558;28;20483;-94
2022/07/17 11:40:05;;;;;;;1.40;1.03;;;27.70;61.20;;;;;;5115724;28;20427;-93
2022/07/17 11:42:31;;;;;;;1.00;0.80;;;27.80;61.20;;;;;;5114314;28;20204;-94
2022/07/17 11:44:57;;;;;;;0.97;0.90;;;27.80;62.90;;;;;;5113630;28;20495;-93
2022/07/17 11:47:27;;;;;;;1.40;0.87;;;27.80;61.00;;;;;;5113936;28;20250;-95
2022/07/17 11:50:13;;;;;;;1.00;0.60;;;27.80;63.80;;;;;;5113785;28;20549;-94
2022/07/17 11:52:49;;;;;;;3.80;0.80;;;27.80;61.70;;;;;;5113719;28;20527;-93
2022/07/17 11:55:15;;;;;;;0.90;0.90;;;27.80;60.40;;;;;;5115145;28;20476;-94
2022/07/17 11:57:50;;;;;;;1.93;1.07;;;27.80;60.40;;;;;;5112776;28;20448;-93
2022/07/17 12:00:18;;;;;;;0.60;0.60;;;27.80;60.80;;;;;;5104391;28;20492;-93
2022/07/17 12:02:45;;;;;;;1.07;0.70;;;27.80;58.60;;;;;;5113090;28;20442;-94
2022/07/17 12:05:11;;;;;;;2.00;1.03;;;27.90;59.30;;;;;;5113669;28;20641;-93
2022/07/17 12:07:44;;;;;;;3.07;1.30;;;28.00;58.80;;;;;;5116329;28;20489;-95
2022/07/17 12:10:22;;;;;;;1.47;0.83;;;28.00;59.40;;;;;;5115342;28;20511;-94
2022/07/17 12:12:56;;;;;;;1.60;1.00;;;28.00;60.40;;;;;;5119654;28;20453;-93
2022/07/17 12:15:51;;;;;;;2.00;0.90;;;28.00;63.90;;;;;;5119300;28;20948;-94
2022/07/17 12:18:28;;;;;;;0.77;0.77;;;28.00;60.80;;;;;;5115101;28;20800;-94
2022/07/17 12:21:02;;;;;;;0.93;0.80;;;28.00;61.90;;;;;;5115386;28;20442;-93
2022/07/17 12:23:36;;;;;;;1.20;1.00;;;28.10;59.30;;;;;;5119892;28;20434;-95
2022/07/17 12:26:11;;;;;;;1.53;0.83;;;28.10;58.50;;;;;;5116511;28;20918;-93
2022/07/17 12:28:37;;;;;;;0.80;0.80;;;28.20;57.80;;;;;;5115045;28;20442;-94
2022/07/17 12:31:03;;;;;;;1.17;1.00;;;28.20;57.80;;;;;;5114526;28;20427;-92
2022/07/17 12:33:29;;;;;;;1.13;0.80;;;28.30;58.20;;;;;;5114234;28;20753;-95
2022/07/17 12:35:55;;;;;;;1.93;0.77;;;28.20;57.60;;;;;;5113017;28;20708;-95
2022/07/17 12:38:21;;;;;;;1.20;0.80;;;28.20;58.30;;;;;;5113825;28;20482;-94
2022/07/17 12:40:47;;;;;;;2.60;0.70;;;28.20;58.80;;;;;;5113169;28;20180;-92
2022/07/17 12:43:12;;;;;;;1.00;0.83;;;28.20;58.40;;;;;;5113500;28;20231;-93
2022/07/17 12:45:39;;;;;;;1.03;0.80;;;28.30;60.50;;;;;;5116125;28;20176;-94
2022/07/17 12:48:04;;;;;;;1.00;0.87;;;28.30;60.80;;;;;;5114200;28;20206;-93